x

Buoy I01 - Eastern Maine Shelf (44034) Wave Buoy

11:04am - Mon 30th Mar 2015 All times are EDT. -4 hours from GMT.

  • Sig Wave height 6.2ft
  • Peak Period 6s
  • Wind
    22mph, 27mph gusts
  • Sea Temp 38°f
  • 空気 Temp 38°f
  • Sea Pressure 1009.8mb
  • Buoy I01 - Eastern Maine Shelf
  • Buoy I01 - Eastern Maine Shelf

More Historic Weather Station data

Upgrade to MSW Pro to gain access to the past 30 days of data for over 8000 Wavebouys and Weather Stations around the globe.

Join Pro

Comparision Forecast

View Surf forecast
   
Mon 03/30 11:04am 6ft 6s 22 27 mph 1009.8mb 38f 38f
10:04am 5ft 5s 22 27 mph 1011mb 38f 38f
9:04am 5ft 6s 20 25 mph 1011.7mb 38f 38f
8:04am 5ft 5s 22 27 mph 1011.8mb 38f 38f
7:04am 6ft 11s 22 25 mph 1012.5mb 38f 37f
6:04am 6ft 11s 20 25 mph 1012.9mb 38f 37f
5:04am 6ft 11s 20 25 mph 1013.7mb 38f 37f
4:04am 6ft 11s 18 22 mph 1014.3mb 38f 37f
3:04am 6ft 11s 20 25 mph 1015.2mb 38f 37f
2:04am 7ft 11s 18 22 mph 1015.9mb 38f 37f
1:04am 6ft 11s 18 20 mph 1016mb 38f 36f
12:04am 5.5ft 11s 18 20 mph 1016.9mb 38f 36f
Sun 03/29 11:04pm 6ft 11s 18 20 mph 1017.2mb 38f 36f
10:04pm 6.5ft 11s  -  mph - 38f -
9:04pm 5ft 11s  -  mph - 38f -
8:04pm 5ft 11s  -  mph - 38f -
5:04pm 2.5ft 4s 18 20 mph 1017.2mb 39f 34f
4:04pm 4.5ft 11s 18 20 mph 1017.4mb 39f 33f
3:04pm 6ft 11s 16 20 mph 1017.8mb 39f 33f
2:04pm 5ft 11s 13 18 mph 1018.5mb 38f 31f
1:04pm 4.5ft 11s 11 16 mph 1018.9mb 39f 31f
12:04pm  -   -  7 9 mph 1019.4mb - 30f
11:04am 4.5ft 11s 9 11 mph 1019.7mb 38f 29f
10:04am  -   -  9 13 mph 1019.6mb 38f 29f
8:04am 4.5ft 11s 18 22 mph 1018.1mb 38f 28f
7:04am 2.5ft 4s 18 22 mph 1017.2mb 38f 28f
6:04am 5ft 11s 20 22 mph 1016.1mb 38f 28f
4:04am 3ft 4s 22 25 mph 1014.4mb 38f 30f
3:04am 5ft 11s  -  mph - 38f -
2:04am 6ft 11s  -  mph - 38f -
1:04am 6ft 11s  -  mph - 38f -
Sat 03/28 11:04pm 6ft 11s 11 13 mph 1011.6mb 38f 36f
10:04pm 6.5ft 11s 11 16 mph 1010.6mb 38f 37f
9:04pm 6ft 11s 16 18 mph 1009.2mb 38f 37f
8:04pm 6ft 11s 7 9 mph 1008.2mb 38f 36f
7:04pm 6ft 11s 11 13 mph 1006.9mb 38f 35f
6:04pm 5ft 6s 18 20 mph 1005.8mb 38f 33f
5:04pm 5ft 6s 18 20 mph 1005.8mb 38f 33f
4:04pm 7.5ft 11s 18 25 mph 1006mb 38f 34f
3:04pm 5ft 6s 20 25 mph 1006.2mb 38f 33f
2:04pm 8ft 11s 18 22 mph 1006.3mb 38f 36f
1:04pm  -   -  22 25 mph 1005.7mb - 36f
12:04pm 4.5ft 5s 22 27 mph 1006.1mb 38f 35f
11:04am 8.5ft 11s 22 25 mph 1007mb 38f 34f
10:04am 9.5ft 11s 25 29 mph 1007.1mb 38f 34f
9:04am 9ft 11s 25 31 mph 1007mb 38f 33f
8:04am 10ft 11s 25 31 mph 1007.3mb 38f 34f
6:04am 8.5ft 11s 22 27 mph 1006.6mb 38f 35f
5:04am 6.5ft 11s 20 25 mph 1006.9mb 38f 36f
4:04am 6ft 11s 16 18 mph 1006.8mb 38f 37f
3:04am 7ft 11s 13 16 mph 1006.7mb 38f 38f
2:04am 5.5ft 11s 9 11 mph 1006.3mb 39f 38f
1:04am 7ft 11s 7 9 mph 1006.1mb 39f 39f
12:04am 5.5ft 11s 4 7 mph 1005.7mb 39f 38f
Fri 03/27 11:04pm 5ft 11s 7 9 mph 1006.3mb 39f 38f
10:04pm 6ft 11s 9 11 mph 1006.3mb 39f 38f
9:04pm 7ft 11s 2 4 mph 1005.4mb 39f 38f
8:04pm 5ft 11s 2
mph
1005.2mb 39f 38f
7:04pm 5.5ft 11s 2
mph
1004.1mb 38f 38f
6:04pm 5.5ft 11s 2
mph
1004mb 37f 38f
5:04pm 6ft 11s 2 4 mph 1003.5mb 37f 38f
4:04pm 6ft 11s 4
mph
1003.4mb 37f 38f
3:04pm 5ft 11s 4 7 mph 1002.9mb 37f 38f
2:04pm 7ft 11s 4 7 mph 1003.7mb 38f 38f
1:04pm 7ft 8s 7 11 mph 1004mb 38f 38f
11:04am 7ft 8s 9 11 mph 1004.3mb 38f 37f
10:04am 6ft 8s 7 9 mph 1005.2mb 38f 37f
9:04am 9ft 8s 11 13 mph 1005.5mb 36f 37f
7:04am 6ft 8s 7 11 mph 1003.3mb 37f 37f
6:04am 8ft 8s 9 11 mph 1002.9mb 37f 37f
5:04am 8ft 8s 13 16 mph 1001.8mb 37f 37f
4:04am 6ft 8s 11 13 mph 1002mb 37f 38f
3:04am 5ft 8s 7 11 mph 1002.8mb 37f 37f
1:04am 3.5ft 6s 9 11 mph 1003.5mb 36f 38f
12:04am 4.5ft 6s 9
mph
1002.9mb 36f 37f
Thu 03/26 11:04pm 3.5ft 6s 4 7 mph 1003.7mb 36f 37f
10:04pm 3.5ft 6s 4 7 mph 1003.8mb 36f 37f
9:04pm 3.5ft 8s 2 4 mph 1004.1mb 37f 37f
8:04pm 3.5ft 6s 2
mph
1004.4mb 36f 38f
7:04pm 3ft 5s 2 4 mph 1003.5mb 37f 38f
6:04pm 3.5ft 6s  -  mph - 37f -